KWWR

Details ICAO KWWR
Name WEST WOODWARD
Region United States
Timezone America/Chicago (UTC-6.0)
Plans Departing 3
Arriving 5
Stats Elevation 2,188 ft / 667 m (AMSL)
Location 36.443467° -99.522962°
Runways 3
Magnetic Variation 4.965° E
Sunrise 2017-12-11 13:41:24 UTC / 2017-12-11 07:41:24 Local
Sunset 2017-12-11 23:24:28 UTC / 2017-12-11 17:24:28 Local
Advertisement - Login to hide

Runways

ID Width Length Bearing (true) Bearing (mag) Surface Threshold Offset Overrun Length
05 60 ft / 18 m 2,500 ft / 762 m 49.90° 44.94° Asphalt 0 ft / 0 m 0 ft / 0 m
12 150 ft / 46 m 5,505 ft / 1,678 m 126.32° 121.36° Asphalt 0 ft / 0 m 0 ft / 0 m
17 100 ft / 30 m 5,514 ft / 1,681 m 180.46° 175.50° Concrete 0 ft / 0 m 0 ft / 0 m
23 60 ft / 18 m 2,500 ft / 762 m 229.90° 224.94° Asphalt 0 ft / 0 m 0 ft / 0 m
30 150 ft / 46 m 5,505 ft / 1,678 m 306.32° 301.36° Asphalt 0 ft / 0 m 0 ft / 0 m
35 100 ft / 30 m 5,514 ft / 1,681 m 0.46° 355.50° Concrete 0 ft / 0 m 0 ft / 0 m

Map

Weather


0- 5 10 15 20 25 30 35+ Temperature / ° C

Clouds and Precipitation
Forecast for 2017-12-11 12:00 UTC. Updated 39 minutes ago

Ground ~20,000 ft ~40,000 ft Winds

METAR

KWWR 110735Z AUTO 22009KT 10SM CLR 01/M15 A3027 RMK AO2

TAF

TAF KWWR 110520Z 1106/1206 24010KT P6SM SKC FM111600 34015G23KT P6SM SKC FM112300 35008KT P6SM SKC

Frequencies

Recorded 118.42 MHz AWOS 3
Unicom 122.80 MHz CTAF/UNICOM
Warning: Do not use this data for real-world aviation or navigation. No guarantee of current accuracy is given.